sensor_id;sensor_type;location;lat;lon;timestamp;pressure;altitude;pressure_sealevel;temperature;humidity
29215;BME280;16252;49.816;7.964;2022-08-25T00:01:42;100080.66;;;25.20;32.81
29215;BME280;16252;49.816;7.964;2022-08-25T00:04:10;100100.88;;;25.26;33.14
29215;BME280;16252;49.816;7.964;2022-08-25T00:06:40;100085.50;;;25.25;32.95
29215;BME280;16252;49.816;7.964;2022-08-25T00:09:08;100089.31;;;25.17;33.35
29215;BME280;16252;49.816;7.964;2022-08-25T00:11:36;100081.91;;;25.04;33.37
29215;BME280;16252;49.816;7.964;2022-08-25T00:14:07;100092.63;;;25.06;33.50
29215;BME280;16252;49.816;7.964;2022-08-25T00:16:32;100099.19;;;25.25;31.56
29215;BME280;16252;49.816;7.964;2022-08-25T00:19:00;100094.50;;;24.99;33.04
29215;BME280;16252;49.816;7.964;2022-08-25T00:21:27;100094.09;;;24.95;33.23
29215;BME280;16252;49.816;7.964;2022-08-25T00:23:53;100090.91;;;24.85;32.85
29215;BME280;16252;49.816;7.964;2022-08-25T00:26:19;100086.47;;;24.71;33.61
29215;BME280;16252;49.816;7.964;2022-08-25T00:28:44;100082.25;;;24.61;33.35
29215;BME280;16252;49.816;7.964;2022-08-25T00:31:16;100097.41;;;24.71;33.64
29215;BME280;16252;49.816;7.964;2022-08-25T00:33:43;100092.31;;;24.61;33.79
29215;BME280;16252;49.816;7.964;2022-08-25T00:36:09;100095.03;;;24.48;33.67
29215;BME280;16252;49.816;7.964;2022-08-25T00:38:38;100098.59;;;24.48;33.91
29215;BME280;16252;49.816;7.964;2022-08-25T00:41:04;100104.06;;;24.48;33.85
29215;BME280;16252;49.816;7.964;2022-08-25T00:46:05;100105.53;;;24.44;34.17
29215;BME280;16252;49.816;7.964;2022-08-25T00:48:31;100101.31;;;24.41;34.23
29215;BME280;16252;49.816;7.964;2022-08-25T00:50:56;100097.50;;;24.36;33.99
29215;BME280;16252;49.816;7.964;2022-08-25T00:53:22;100039.53;;;23.99;34.04
29215;BME280;16252;49.816;7.964;2022-08-25T00:55:47;100095.38;;;24.31;33.92
29215;BME280;16252;49.816;7.964;2022-08-25T00:58:18;100102.34;;;24.34;33.72
29215;BME280;16252;49.816;7.964;2022-08-25T01:00:48;100108.84;;;24.33;33.69
29215;BME280;16252;49.816;7.964;2022-08-25T01:03:15;100106.28;;;24.25;33.80
29215;BME280;16252;49.816;7.964;2022-08-25T01:05:43;100106.06;;;24.19;34.09
29215;BME280;16252;49.816;7.964;2022-08-25T01:08:09;100105.78;;;24.08;34.12
29215;BME280;16252;49.816;7.964;2022-08-25T01:10:38;100122.88;;;24.16;34.01
29215;BME280;16252;49.816;7.964;2022-08-25T01:13:09;100115.50;;;24.17;34.19
29215;BME280;16252;49.816;7.964;2022-08-25T01:15:36;100093.09;;;23.93;34.06
29215;BME280;16252;49.816;7.964;2022-08-25T01:18:01;100101.09;;;23.95;34.24
29215;BME280;16252;49.816;7.964;2022-08-25T01:20:29;100119.84;;;24.05;34.45
29215;BME280;16252;49.816;7.964;2022-08-25T01:22:56;100121.06;;;23.95;34.32
29215;BME280;16252;49.816;7.964;2022-08-25T01:28:11;100118.06;;;23.84;34.49
29215;BME280;16252;49.816;7.964;2022-08-25T01:30:37;100127.50;;;23.81;34.41
29215;BME280;16252;49.816;7.964;2022-08-25T01:33:07;100128.97;;;23.84;34.53
29215;BME280;16252;49.816;7.964;2022-08-25T01:35:34;100129.16;;;23.75;34.82
29215;BME280;16252;49.816;7.964;2022-08-25T01:38:01;100123.88;;;23.74;34.70
29215;BME280;16252;49.816;7.964;2022-08-25T01:40:27;100123.19;;;23.72;34.95
29215;BME280;16252;49.816;7.964;2022-08-25T01:45:42;100125.09;;;23.71;34.74
29215;BME280;16252;49.816;7.964;2022-08-25T01:48:09;100125.50;;;23.68;34.77
29215;BME280;16252;49.816;7.964;2022-08-25T01:50:36;100111.94;;;23.53;35.06
29215;BME280;16252;49.816;7.964;2022-08-25T01:53:06;100126.50;;;23.67;35.27
29215;BME280;16252;49.816;7.964;2022-08-25T01:55:33;100114.72;;;23.60;35.50
29215;BME280;16252;49.816;7.964;2022-08-25T01:58:33;100128.38;;;23.60;35.54
29215;BME280;16252;49.816;7.964;2022-08-25T02:01:00;100119.53;;;23.58;35.30
29215;BME280;16252;49.816;7.964;2022-08-25T02:03:26;100102.66;;;23.48;35.42
29215;BME280;16252;49.816;7.964;2022-08-25T02:05:51;100114.25;;;23.50;35.73
29215;BME280;16252;49.816;7.964;2022-08-25T02:08:17;100072.00;;;23.24;35.87
29215;BME280;16252;49.816;7.964;2022-08-25T02:10:43;100118.41;;;23.46;35.92
29215;BME280;16252;49.816;7.964;2022-08-25T02:13:08;100117.75;;;23.44;35.63
29215;BME280;16252;49.816;7.964;2022-08-25T02:15:39;100115.66;;;23.46;35.98
29215;BME280;16252;49.816;7.964;2022-08-25T02:18:05;100111.78;;;23.33;35.89
29215;BME280;16252;49.816;7.964;2022-08-25T02:20:30;100112.63;;;23.34;35.86
29215;BME280;16252;49.816;7.964;2022-08-25T02:22:55;100114.69;;;23.32;35.80
29215;BME280;16252;49.816;7.964;2022-08-25T02:25:20;100088.34;;;23.18;35.99
29215;BME280;16252;49.816;7.964;2022-08-25T02:27:46;100096.31;;;23.19;36.18
29215;BME280;16252;49.816;7.964;2022-08-25T02:30:13;100100.09;;;23.18;36.18
29215;BME280;16252;49.816;7.964;2022-08-25T02:32:39;100103.88;;;23.17;35.72
29215;BME280;16252;49.816;7.964;2022-08-25T02:35:06;100096.88;;;23.08;35.77
29215;BME280;16252;49.816;7.964;2022-08-25T02:37:31;100099.59;;;23.08;36.09
29215;BME280;16252;49.816;7.964;2022-08-25T02:39:56;100109.03;;;23.05;35.96
29215;BME280;16252;49.816;7.964;2022-08-25T02:42:22;100090.53;;;22.86;36.10
29215;BME280;16252;49.816;7.964;2022-08-25T02:44:49;100103.25;;;22.79;36.07
29215;BME280;16252;49.816;7.964;2022-08-25T02:47:14;100110.03;;;22.83;36.20
29215;BME280;16252;49.816;7.964;2022-08-25T02:49:41;100074.88;;;22.52;36.31
29215;BME280;16252;49.816;7.964;2022-08-25T02:52:06;100107.75;;;22.65;36.10
29215;BME280;16252;49.816;7.964;2022-08-25T02:54:32;100100.91;;;22.54;36.18
29215;BME280;16252;49.816;7.964;2022-08-25T02:56:57;100103.38;;;22.49;36.31
29215;BME280;16252;49.816;7.964;2022-08-25T02:59:23;100095.78;;;22.44;36.30
29215;BME280;16252;49.816;7.964;2022-08-25T03:01:48;100094.44;;;22.40;36.75
29215;BME280;16252;49.816;7.964;2022-08-25T03:04:14;100090.88;;;22.40;36.57
29215;BME280;16252;49.816;7.964;2022-08-25T03:06:39;100018.16;;;21.89;36.74
29215;BME280;16252;49.816;7.964;2022-08-25T03:09:05;100098.69;;;22.43;36.58
29215;BME280;16252;49.816;7.964;2022-08-25T03:11:31;100104.59;;;22.46;36.96
29215;BME280;16252;49.816;7.964;2022-08-25T03:13:56;100091.28;;;22.37;36.79
29215;BME280;16252;49.816;7.964;2022-08-25T03:16:22;100080.03;;;22.25;36.50
29215;BME280;16252;49.816;7.964;2022-08-25T03:18:47;100093.91;;;22.30;36.90
29215;BME280;16252;49.816;7.964;2022-08-25T03:21:14;100099.94;;;22.25;37.05
29215;BME280;16252;49.816;7.964;2022-08-25T03:23:40;100078.78;;;22.13;37.18
29215;BME280;16252;49.816;7.964;2022-08-25T03:26:06;100075.50;;;22.02;37.00
29215;BME280;16252;49.816;7.964;2022-08-25T03:28:50;100059.66;;;21.91;37.38
29215;BME280;16252;49.816;7.964;2022-08-25T03:31:16;100097.97;;;22.19;37.31
29215;BME280;16252;49.816;7.964;2022-08-25T03:33:41;100099.00;;;22.18;37.15
29215;BME280;16252;49.816;7.964;2022-08-25T03:36:07;100067.06;;;21.97;37.47
29215;BME280;16252;49.816;7.964;2022-08-25T03:38:33;100091.31;;;22.22;37.40
29215;BME280;16252;49.816;7.964;2022-08-25T03:40:58;100078.78;;;22.13;37.38
29215;BME280;16252;49.816;7.964;2022-08-25T03:43:24;100073.53;;;22.11;37.57
29215;BME280;16252;49.816;7.964;2022-08-25T03:45:49;100082.38;;;22.13;37.39
29215;BME280;16252;49.816;7.964;2022-08-25T03:48:15;100079.38;;;22.08;37.33
29215;BME280;16252;49.816;7.964;2022-08-25T03:50:47;100064.63;;;22.02;37.12
29215;BME280;16252;49.816;7.964;2022-08-25T03:53:12;100045.56;;;21.88;37.35
29215;BME280;16252;49.816;7.964;2022-08-25T03:55:39;100056.94;;;21.91;37.63
29215;BME280;16252;49.816;7.964;2022-08-25T03:58:04;100062.84;;;21.80;37.78
29215;BME280;16252;49.816;7.964;2022-08-25T04:00:30;100005.88;;;21.49;37.93
29215;BME280;16252;49.816;7.964;2022-08-25T04:02:55;100074.97;;;21.77;37.81
29215;BME280;16252;49.816;7.964;2022-08-25T04:05:20;100084.91;;;21.85;37.76
29215;BME280;16252;49.816;7.964;2022-08-25T04:07:45;100073.56;;;21.81;38.06
29215;BME280;16252;49.816;7.964;2022-08-25T04:10:11;100083.69;;;21.88;38.17
29215;BME280;16252;49.816;7.964;2022-08-25T04:12:37;100086.06;;;21.91;38.18
29215;BME280;16252;49.816;7.964;2022-08-25T04:15:06;100082.78;;;21.95;38.26
29215;BME280;16252;49.816;7.964;2022-08-25T04:17:32;100091.97;;;21.94;38.25
29215;BME280;16252;49.816;7.964;2022-08-25T04:19:57;100093.19;;;21.92;38.06
29215;BME280;16252;49.816;7.964;2022-08-25T04:22:23;100080.69;;;21.82;38.25
29215;BME280;16252;49.816;7.964;2022-08-25T04:24:48;100061.28;;;21.71;38.12
29215;BME280;16252;49.816;7.964;2022-08-25T04:27:14;100084.84;;;21.78;38.43
29215;BME280;16252;49.816;7.964;2022-08-25T04:29:39;100084.00;;;21.78;38.19
29215;BME280;16252;49.816;7.964;2022-08-25T04:32:04;100038.75;;;21.47;38.54
29215;BME280;16252;49.816;7.964;2022-08-25T04:34:30;100084.34;;;21.75;38.69
29215;BME280;16252;49.816;7.964;2022-08-25T04:36:56;100082.97;;;21.79;38.63
29215;BME280;16252;49.816;7.964;2022-08-25T04:39:21;100067.56;;;21.71;38.71
29215;BME280;16252;49.816;7.964;2022-08-25T04:41:48;100096.47;;;21.87;38.39
29215;BME280;16252;49.816;7.964;2022-08-25T04:44:14;100093.28;;;21.83;38.51
29215;BME280;16252;49.816;7.964;2022-08-25T04:46:39;100071.50;;;21.69;38.43
29215;BME280;16252;49.816;7.964;2022-08-25T04:49:04;100057.31;;;21.58;38.44
29215;BME280;16252;49.816;7.964;2022-08-25T04:51:39;100090.28;;;21.78;38.60
29215;BME280;16252;49.816;7.964;2022-08-25T04:54:09;100081.16;;;21.71;38.64
29215;BME280;16252;49.816;7.964;2022-08-25T04:56:35;100074.13;;;21.62;38.65
29215;BME280;16252;49.816;7.964;2022-08-25T04:59:05;100088.97;;;21.74;38.80
29215;BME280;16252;49.816;7.964;2022-08-25T05:01:31;100072.91;;;21.50;38.93
29215;BME280;16252;49.816;7.964;2022-08-25T05:04:00;100080.44;;;21.62;38.85
29215;BME280;16252;49.816;7.964;2022-08-25T05:06:27;100054.44;;;21.37;39.20
29215;BME280;16252;49.816;7.964;2022-08-25T05:08:54;100101.00;;;21.65;39.12
29215;BME280;16252;49.816;7.964;2022-08-25T05:11:20;100093.47;;;21.67;39.07
29215;BME280;16252;49.816;7.964;2022-08-25T05:13:47;100097.06;;;21.68;38.91
29215;BME280;16252;49.816;7.964;2022-08-25T05:16:13;100057.41;;;21.50;39.42
29215;BME280;16252;49.816;7.964;2022-08-25T05:18:39;100093.13;;;21.70;39.20
29215;BME280;16252;49.816;7.964;2022-08-25T05:21:07;100057.69;;;21.55;39.53
29215;BME280;16252;49.816;7.964;2022-08-25T05:23:33;100084.44;;;21.67;39.20
29215;BME280;16252;49.816;7.964;2022-08-25T05:26:07;100084.00;;;21.78;39.15
29215;BME280;16252;49.816;7.964;2022-08-25T05:28:33;100029.31;;;21.35;39.65
29215;BME280;16252;49.816;7.964;2022-08-25T05:31:00;100075.06;;;21.69;39.55
29215;BME280;16252;49.816;7.964;2022-08-25T05:33:27;100079.00;;;21.67;39.62
29215;BME280;16252;49.816;7.964;2022-08-25T05:35:53;100093.00;;;21.78;39.67
29215;BME280;16252;49.816;7.964;2022-08-25T05:38:18;100079.56;;;21.77;39.86
29215;BME280;16252;49.816;7.964;2022-08-25T05:40:43;100058.06;;;21.67;39.80
29215;BME280;16252;49.816;7.964;2022-08-25T05:43:09;100093.09;;;21.85;39.99
29215;BME280;16252;49.816;7.964;2022-08-25T05:45:34;100069.72;;;21.76;39.96
29215;BME280;16252;49.816;7.964;2022-08-25T05:48:00;100070.38;;;21.78;39.98
29215;BME280;16252;49.816;7.964;2022-08-25T05:50:25;100076.56;;;21.86;40.39
29215;BME280;16252;49.816;7.964;2022-08-25T05:52:51;100063.50;;;21.82;40.02
29215;BME280;16252;49.816;7.964;2022-08-25T05:55:17;100056.38;;;21.81;40.20
29215;BME280;16252;49.816;7.964;2022-08-25T05:57:42;100085.13;;;21.98;39.98
29215;BME280;16252;49.816;7.964;2022-08-25T06:00:08;100069.44;;;22.00;40.38
29215;BME280;16252;49.816;7.964;2022-08-25T06:02:34;100074.56;;;22.10;40.02
29215;BME280;16252;49.816;7.964;2022-08-25T06:05:06;100036.81;;;21.92;40.09
29215;BME280;16252;49.816;7.964;2022-08-25T06:07:32;100073.06;;;22.22;39.88
29215;BME280;16252;49.816;7.964;2022-08-25T06:09:57;100069.38;;;22.30;39.90
29215;BME280;16252;49.816;7.964;2022-08-25T06:12:23;100026.94;;;22.06;40.37
29215;BME280;16252;49.816;7.964;2022-08-25T06:14:48;100053.31;;;22.35;40.38
29215;BME280;16252;49.816;7.964;2022-08-25T06:17:14;100073.56;;;22.47;40.22
29215;BME280;16252;49.816;7.964;2022-08-25T06:19:40;100043.97;;;22.44;40.34
29215;BME280;16252;49.816;7.964;2022-08-25T06:22:05;100061.53;;;22.57;40.10
29215;BME280;16252;49.816;7.964;2022-08-25T06:24:30;100055.22;;;22.56;40.13
29215;BME280;16252;49.816;7.964;2022-08-25T06:26:57;100048.31;;;22.60;40.07
29215;BME280;16252;49.816;7.964;2022-08-25T06:29:22;100043.94;;;22.59;40.29
29215;BME280;16252;49.816;7.964;2022-08-25T06:31:48;100054.13;;;22.72;40.26
29215;BME280;16252;49.816;7.964;2022-08-25T06:34:14;100044.50;;;22.76;40.14
29215;BME280;16252;49.816;7.964;2022-08-25T06:36:40;100019.06;;;22.69;40.22
29215;BME280;16252;49.816;7.964;2022-08-25T06:39:06;100043.97;;;22.87;40.31
29215;BME280;16252;49.816;7.964;2022-08-25T06:41:31;100035.00;;;22.93;40.43
29215;BME280;16252;49.816;7.964;2022-08-25T06:43:57;100051.31;;;23.08;40.29
29215;BME280;16252;49.816;7.964;2022-08-25T06:46:25;100037.03;;;23.06;40.18
29215;BME280;16252;49.816;7.964;2022-08-25T06:48:55;100044.94;;;23.23;40.36
29215;BME280;16252;49.816;7.964;2022-08-25T06:51:22;100041.97;;;23.24;40.35
29215;BME280;16252;49.816;7.964;2022-08-25T06:53:49;100036.16;;;23.27;40.09
29215;BME280;16252;49.816;7.964;2022-08-25T06:56:16;100032.19;;;23.36;40.42
29215;BME280;16252;49.816;7.964;2022-08-25T06:58:42;100028.22;;;23.39;40.32
29215;BME280;16252;49.816;7.964;2022-08-25T07:01:15;100044.56;;;23.61;40.08
29215;BME280;16252;49.816;7.964;2022-08-25T07:03:41;100030.66;;;23.55;40.40
29215;BME280;16252;49.816;7.964;2022-08-25T07:06:07;100039.53;;;23.64;40.38
29215;BME280;16252;49.816;7.964;2022-08-25T07:08:33;100034.28;;;23.69;40.41
29215;BME280;16252;49.816;7.964;2022-08-25T07:11:06;100050.41;;;23.86;40.83
29215;BME280;16252;49.816;7.964;2022-08-25T07:13:32;100026.84;;;23.85;40.62
29215;BME280;16252;49.816;7.964;2022-08-25T07:15:58;100013.59;;;23.82;41.17
29215;BME280;16252;49.816;7.964;2022-08-25T07:18:23;100024.56;;;23.95;41.10
29215;BME280;16252;49.816;7.964;2022-08-25T07:20:48;100018.72;;;23.98;41.59
29215;BME280;16252;49.816;7.964;2022-08-25T07:23:16;100008.59;;;23.92;41.00
29215;BME280;16252;49.816;7.964;2022-08-25T07:25:41;100019.78;;;24.10;41.22
29215;BME280;16252;49.816;7.964;2022-08-25T07:28:06;100017.72;;;24.19;41.20
29215;BME280;16252;49.816;7.964;2022-08-25T07:30:32;100004.06;;;24.19;41.55
29215;BME280;16252;49.816;7.964;2022-08-25T07:32:57;100021.56;;;24.38;41.34
29215;BME280;16252;49.816;7.964;2022-08-25T07:35:23;100028.16;;;24.57;41.58
29215;BME280;16252;49.816;7.964;2022-08-25T07:37:54;100017.66;;;24.67;41.36
29215;BME280;16252;49.816;7.964;2022-08-25T07:40:39;100028.19;;;24.83;40.75
29215;BME280;16252;49.816;7.964;2022-08-25T07:43:05;100018.94;;;24.84;41.52
29215;BME280;16252;49.816;7.964;2022-08-25T07:45:35;100036.03;;;25.20;39.58
29215;BME280;16252;49.816;7.964;2022-08-25T07:48:04;100041.25;;;25.15;41.10
29215;BME280;16252;49.816;7.964;2022-08-25T07:50:30;100034.94;;;25.21;41.09
29215;BME280;16252;49.816;7.964;2022-08-25T07:52:56;100017.00;;;25.12;40.97
29215;BME280;16252;49.816;7.964;2022-08-25T07:55:24;100032.00;;;25.29;41.25
29215;BME280;16252;49.816;7.964;2022-08-25T07:57:50;99988.16;;;25.16;41.15
29215;BME280;16252;49.816;7.964;2022-08-25T08:00:17;100040.59;;;25.52;40.79
29215;BME280;16252;49.816;7.964;2022-08-25T08:02:43;100035.72;;;25.61;40.75
29215;BME280;16252;49.816;7.964;2022-08-25T08:05:09;100049.81;;;25.78;40.97
29215;BME280;16252;49.816;7.964;2022-08-25T08:07:35;100048.75;;;25.86;41.13
29215;BME280;16252;49.816;7.964;2022-08-25T08:10:00;100042.59;;;25.97;41.16
29215;BME280;16252;49.816;7.964;2022-08-25T08:12:26;100036.66;;;26.00;41.17
29215;BME280;16252;49.816;7.964;2022-08-25T08:14:52;100026.94;;;26.11;40.84
29215;BME280;16252;49.816;7.964;2022-08-25T08:17:18;100043.06;;;26.32;40.51
29215;BME280;16252;49.816;7.964;2022-08-25T08:19:44;100039.03;;;26.42;41.01
29215;BME280;16252;49.816;7.964;2022-08-25T08:22:09;100022.31;;;26.43;40.83
29215;BME280;16252;49.816;7.964;2022-08-25T08:24:36;100038.06;;;26.61;40.91
29215;BME280;16252;49.816;7.964;2022-08-25T08:27:06;100013.59;;;26.59;40.63
29215;BME280;16252;49.816;7.964;2022-08-25T08:29:33;100045.75;;;26.84;40.71
29215;BME280;16252;49.816;7.964;2022-08-25T08:31:58;100029.88;;;26.86;40.71
29215;BME280;16252;49.816;7.964;2022-08-25T08:34:24;100024.03;;;27.01;40.90
29215;BME280;16252;49.816;7.964;2022-08-25T08:36:49;100010.09;;;27.02;40.85
29215;BME280;16252;49.816;7.964;2022-08-25T08:39:14;100030.97;;;27.35;40.74
29215;BME280;16252;49.816;7.964;2022-08-25T08:50:09;100026.91;;;28.30;40.39
29215;BME280;16252;49.816;7.964;2022-08-25T08:52:47;99992.69;;;28.68;40.84
29215;BME280;16252;49.816;7.964;2022-08-25T08:57:48;100016.53;;;30.44;40.38
29215;BME280;16252;49.816;7.964;2022-08-25T09:00:15;99995.38;;;31.34;39.65
29215;BME280;16252;49.816;7.964;2022-08-25T09:05:25;100020.81;;;33.70;37.11
29215;BME280;16252;49.816;7.964;2022-08-25T09:08:06;100011.44;;;34.80;36.52
29215;BME280;16252;49.816;7.964;2022-08-25T09:10:47;100007.66;;;35.87;34.93
29215;BME280;16252;49.816;7.964;2022-08-25T09:16:30;100003.13;;;37.78;32.03
29215;BME280;16252;49.816;7.964;2022-08-25T09:19:35;100006.53;;;38.75;31.13
29215;BME280;16252;49.816;7.964;2022-08-25T09:24:59;100004.13;;;40.17;28.45
29215;BME280;16252;49.816;7.964;2022-08-25T09:30:20;99997.53;;;41.17;26.38
29215;BME280;16252;49.816;7.964;2022-08-25T09:32:55;99993.94;;;41.56;26.58
29215;BME280;16252;49.816;7.964;2022-08-25T09:35:31;99984.63;;;41.87;25.25
29215;BME280;16252;49.816;7.964;2022-08-25T09:38:07;99991.47;;;42.29;25.39
29215;BME280;16252;49.816;7.964;2022-08-25T09:40:40;99987.69;;;42.60;24.31
29215;BME280;16252;49.816;7.964;2022-08-25T09:48:46;99967.97;;;43.42;23.42
29215;BME280;16252;49.816;7.964;2022-08-25T09:53:49;99977.31;;;43.93;22.12
29215;BME280;16252;49.816;7.964;2022-08-25T09:56:18;99978.19;;;44.14;21.94
29215;BME280;16252;49.816;7.964;2022-08-25T09:58:43;99961.56;;;44.22;21.01
29215;BME280;16252;49.816;7.964;2022-08-25T10:01:18;99950.47;;;44.38;21.60
29215;BME280;16252;49.816;7.964;2022-08-25T10:04:02;99968.63;;;44.70;21.78
29215;BME280;16252;49.816;7.964;2022-08-25T10:06:47;99960.69;;;44.84;21.67
29215;BME280;16252;49.816;7.964;2022-08-25T10:09:24;99978.25;;;45.14;21.00
29215;BME280;16252;49.816;7.964;2022-08-25T10:11:51;99959.25;;;45.24;19.78
29215;BME280;16252;49.816;7.964;2022-08-25T10:14:33;99961.88;;;45.53;20.74
29215;BME280;16252;49.816;7.964;2022-08-25T10:17:16;99973.06;;;45.74;19.48
29215;BME280;16252;49.816;7.964;2022-08-25T10:19:50;99968.31;;;45.91;19.41
29215;BME280;16252;49.816;7.964;2022-08-25T10:22:26;99959.97;;;46.07;19.20
29215;BME280;16252;49.816;7.964;2022-08-25T10:24:58;99966.75;;;46.18;18.35
29215;BME280;16252;49.816;7.964;2022-08-25T10:30:27;99965.25;;;46.48;18.11
29215;BME280;16252;49.816;7.964;2022-08-25T10:33:25;99962.19;;;46.69;18.59
29215;BME280;16252;49.816;7.964;2022-08-25T10:38:42;99939.34;;;46.90;18.59
29215;BME280;16252;49.816;7.964;2022-08-25T10:41:28;99951.44;;;47.19;18.24
29215;BME280;16252;49.816;7.964;2022-08-25T10:44:12;99947.31;;;47.32;17.58
29215;BME280;16252;49.816;7.964;2022-08-25T10:47:27;99940.19;;;47.39;18.18
29215;BME280;16252;49.816;7.964;2022-08-25T10:58:50;99930.25;;;47.45;17.62
29215;BME280;16252;49.816;7.964;2022-08-25T11:01:39;99922.47;;;47.10;16.96
29215;BME280;16252;49.816;7.964;2022-08-25T11:04:14;99912.31;;;46.77;16.72
29215;BME280;16252;49.816;7.964;2022-08-25T11:06:48;99922.13;;;46.67;16.85
29215;BME280;16252;49.816;7.964;2022-08-25T11:09:20;99881.28;;;46.37;16.75
29215;BME280;16252;49.816;7.964;2022-08-25T11:11:54;99911.97;;;46.66;16.91
29215;BME280;16252;49.816;7.964;2022-08-25T11:14:27;99915.28;;;46.68;16.96
29215;BME280;16252;49.816;7.964;2022-08-25T11:17:05;99892.81;;;46.60;16.50
29215;BME280;16252;49.816;7.964;2022-08-25T11:19:43;99907.03;;;46.47;16.76
29215;BME280;16252;49.816;7.964;2022-08-25T11:22:18;99900.47;;;46.31;17.28
29215;BME280;16252;49.816;7.964;2022-08-25T11:25:13;99900.53;;;45.66;16.53
29215;BME280;16252;49.816;7.964;2022-08-25T11:27:47;99899.44;;;44.97;17.45
29215;BME280;16252;49.816;7.964;2022-08-25T11:30:17;99874.03;;;44.18;17.44
29215;BME280;16252;49.816;7.964;2022-08-25T11:32:47;99887.00;;;43.68;17.86
29215;BME280;16252;49.816;7.964;2022-08-25T11:35:16;99890.25;;;43.11;18.13
29215;BME280;16252;49.816;7.964;2022-08-25T11:40:37;99875.22;;;42.25;18.75
29215;BME280;16252;49.816;7.964;2022-08-25T11:43:20;99869.91;;;41.80;18.96
29215;BME280;16252;49.816;7.964;2022-08-25T11:48:58;99858.56;;;40.88;19.68
29215;BME280;16252;49.816;7.964;2022-08-25T11:51:33;99876.22;;;40.57;19.99
29215;BME280;16252;49.816;7.964;2022-08-25T11:56:37;99852.16;;;39.97;20.13
29215;BME280;16252;49.816;7.964;2022-08-25T11:59:05;99850.03;;;39.80;20.06
29215;BME280;16252;49.816;7.964;2022-08-25T12:12:55;99841.94;;;39.01;20.96
29215;BME280;16252;49.816;7.964;2022-08-25T12:23:43;99837.19;;;38.55;21.44
29215;BME280;16252;49.816;7.964;2022-08-25T12:26:37;99836.75;;;38.48;21.59
29215;BME280;16252;49.816;7.964;2022-08-25T12:29:29;99819.94;;;38.34;21.71
29215;BME280;16252;49.816;7.964;2022-08-25T12:35:09;99829.19;;;38.15;21.84
29215;BME280;16252;49.816;7.964;2022-08-25T12:38:04;99820.22;;;38.00;22.14
29215;BME280;16252;49.816;7.964;2022-08-25T12:43:11;99807.78;;;37.73;22.72
29215;BME280;16252;49.816;7.964;2022-08-25T12:45:45;99801.91;;;37.56;22.78
29215;BME280;16252;49.816;7.964;2022-08-25T12:51:02;99817.44;;;37.62;22.51
29215;BME280;16252;49.816;7.964;2022-08-25T12:56:59;99818.16;;;37.48;22.71
29215;BME280;16252;49.816;7.964;2022-08-25T13:10:02;99801.31;;;37.35;22.88
29215;BME280;16252;49.816;7.964;2022-08-25T13:15:12;99800.00;;;37.08;23.17
29215;BME280;16252;49.816;7.964;2022-08-25T13:17:39;99802.41;;;36.91;23.06
29215;BME280;16252;49.816;7.964;2022-08-25T13:20:22;99794.13;;;36.85;23.26
29215;BME280;16252;49.816;7.964;2022-08-25T13:22:50;99783.25;;;36.60;23.36
29215;BME280;16252;49.816;7.964;2022-08-25T13:25:24;99784.84;;;36.66;23.57
29215;BME280;16252;49.816;7.964;2022-08-25T13:27:55;99780.22;;;36.56;23.55
29215;BME280;16252;49.816;7.964;2022-08-25T13:30:25;99775.31;;;36.43;23.66
29215;BME280;16252;49.816;7.964;2022-08-25T13:32:51;99757.13;;;36.27;23.48
29215;BME280;16252;49.816;7.964;2022-08-25T13:35:18;99770.69;;;36.33;23.64
29215;BME280;16252;49.816;7.964;2022-08-25T13:37:43;99746.34;;;36.15;23.88
29215;BME280;16252;49.816;7.964;2022-08-25T13:40:10;99765.75;;;36.25;23.74
29215;BME280;16252;49.816;7.964;2022-08-25T13:42:38;99769.13;;;36.22;23.81
29215;BME280;16252;49.816;7.964;2022-08-25T13:45:05;99728.63;;;36.00;23.88
29215;BME280;16252;49.816;7.964;2022-08-25T13:47:36;99751.06;;;36.19;23.98
29215;BME280;16252;49.816;7.964;2022-08-25T13:53:13;99750.78;;;36.16;23.79
29215;BME280;16252;49.816;7.964;2022-08-25T13:55:58;99744.78;;;36.03;23.63
29215;BME280;16252;49.816;7.964;2022-08-25T13:58:29;99747.06;;;35.96;23.80
29215;BME280;16252;49.816;7.964;2022-08-25T14:01:11;99743.50;;;35.91;23.64
29215;BME280;16252;49.816;7.964;2022-08-25T14:03:40;99758.91;;;35.78;23.94
29215;BME280;16252;49.816;7.964;2022-08-25T14:06:20;99745.22;;;35.81;23.89
29215;BME280;16252;49.816;7.964;2022-08-25T14:11:31;99750.56;;;35.73;24.25
29215;BME280;16252;49.816;7.964;2022-08-25T14:14:05;99751.47;;;35.68;24.40
29215;BME280;16252;49.816;7.964;2022-08-25T14:16:37;99695.50;;;35.30;24.39
29215;BME280;16252;49.816;7.964;2022-08-25T14:19:02;99739.28;;;35.59;24.56
29215;BME280;16252;49.816;7.964;2022-08-25T14:21:30;99725.69;;;35.47;24.55
29215;BME280;16252;49.816;7.964;2022-08-25T14:23:56;99729.28;;;35.53;24.33
29215;BME280;16252;49.816;7.964;2022-08-25T14:26:22;99734.00;;;35.52;24.47
29215;BME280;16252;49.816;7.964;2022-08-25T14:28:47;99711.84;;;35.37;24.51
29215;BME280;16252;49.816;7.964;2022-08-25T14:31:23;99709.91;;;35.43;24.41
29215;BME280;16252;49.816;7.964;2022-08-25T14:34:02;99728.16;;;35.54;24.43
29215;BME280;16252;49.816;7.964;2022-08-25T14:36:29;99733.22;;;35.47;24.33
29215;BME280;16252;49.816;7.964;2022-08-25T14:38:55;99721.03;;;35.43;24.46
29215;BME280;16252;49.816;7.964;2022-08-25T14:41:22;99729.38;;;35.43;24.43
29215;BME280;16252;49.816;7.964;2022-08-25T14:43:48;99718.81;;;35.34;24.65
29215;BME280;16252;49.816;7.964;2022-08-25T14:46:35;99706.88;;;35.34;24.59
29215;BME280;16252;49.816;7.964;2022-08-25T14:49:04;99693.88;;;35.24;24.77
29215;BME280;16252;49.816;7.964;2022-08-25T14:51:31;99696.97;;;35.23;24.79
29215;BME280;16252;49.816;7.964;2022-08-25T14:54:04;99705.22;;;35.33;24.44
29215;BME280;16252;49.816;7.964;2022-08-25T14:56:32;99709.16;;;35.27;24.69